createdAt,value
2022-08-17T00:01:16.780Z,20.00
2022-08-17T00:04:09.297Z,19.80
2022-08-17T00:06:58.341Z,19.70
2022-08-17T00:09:44.994Z,19.80
2022-08-17T00:12:41.924Z,19.60
2022-08-17T00:15:30.777Z,19.60
2022-08-17T00:19:01.169Z,19.70
2022-08-17T00:21:25.290Z,19.70
2022-08-17T00:24:12.618Z,19.60
2022-08-17T00:26:59.463Z,19.50
2022-08-17T00:29:47.373Z,19.40
2022-08-17T00:33:14.382Z,19.40
2022-08-17T00:35:46.995Z,19.30
2022-08-17T00:38:33.846Z,19.30
2022-08-17T00:41:24.306Z,19.50
2022-08-17T00:44:12.096Z,19.60
2022-08-17T00:47:00.408Z,19.60
2022-08-17T00:49:47.206Z,19.50
2022-08-17T00:52:38.239Z,19.50
2022-08-17T00:55:26.295Z,19.80
2022-08-17T00:58:12.946Z,19.90
2022-08-17T01:01:02.085Z,20.10
2022-08-17T01:03:50.255Z,19.80
2022-08-17T01:06:37.442Z,19.50
2022-08-17T01:09:24.493Z,19.50
2022-08-17T01:12:13.087Z,19.60
2022-08-17T01:14:59.878Z,19.50
2022-08-17T01:17:46.848Z,19.30
2022-08-17T01:20:42.643Z,19.00
2022-08-17T01:23:36.826Z,18.80
2022-08-17T01:26:24.347Z,18.70
2022-08-17T01:29:11.630Z,18.50
2022-08-17T01:32:03.558Z,18.30
2022-08-17T01:34:50.995Z,18.30
2022-08-17T01:37:41.089Z,18.30
2022-08-17T01:40:35.422Z,18.10
2022-08-17T01:43:23.160Z,18.20
2022-08-17T01:46:09.943Z,18.30
2022-08-17T01:48:57.822Z,18.40
2022-08-17T01:51:44.429Z,18.40
2022-08-17T01:54:31.387Z,18.40
2022-08-17T01:57:19.491Z,18.30
2022-08-17T02:00:08.356Z,18.20
2022-08-17T02:02:57.562Z,18.40
2022-08-17T02:05:44.384Z,18.40
2022-08-17T02:08:37.030Z,18.50
2022-08-17T02:11:25.789Z,18.60
2022-08-17T02:14:14.130Z,18.80
2022-08-17T02:17:00.725Z,19.00
2022-08-17T02:19:47.289Z,19.10
2022-08-17T02:22:35.206Z,19.10
2022-08-17T02:25:22.797Z,19.30
2022-08-17T02:28:12.331Z,19.30
2022-08-17T02:31:05.607Z,19.40
2022-08-17T02:34:00.428Z,19.50
2022-08-17T02:36:53.342Z,19.40
2022-08-17T02:39:39.908Z,19.30
2022-08-17T02:42:31.054Z,19.40
2022-08-17T02:45:21.061Z,19.40
2022-08-17T02:48:09.238Z,19.40
2022-08-17T02:50:55.942Z,19.30
2022-08-17T02:53:42.378Z,19.00
2022-08-17T02:56:28.826Z,19.00
2022-08-17T02:59:15.239Z,19.00
2022-08-17T03:02:04.013Z,19.20
2022-08-17T03:04:52.016Z,19.00
2022-08-17T03:07:39.369Z,19.00
2022-08-17T03:10:26.333Z,19.10
2022-08-17T03:13:14.421Z,19.00
2022-08-17T03:16:01.456Z,19.00
2022-08-17T03:18:48.493Z,19.00
2022-08-17T03:21:36.785Z,19.00
2022-08-17T03:24:26.811Z,19.00
2022-08-17T03:27:15.635Z,18.90
2022-08-17T03:30:03.218Z,18.80
2022-08-17T03:32:51.988Z,18.90
2022-08-17T03:35:41.195Z,19.10
2022-08-17T03:38:29.114Z,19.30
2022-08-17T03:41:25.770Z,19.40
2022-08-17T03:44:12.497Z,19.50
2022-08-17T03:47:16.188Z,19.50
2022-08-17T03:50:35.241Z,19.60
2022-08-17T03:53:47.410Z,19.60
2022-08-17T03:56:45.494Z,19.70
2022-08-17T03:59:32.705Z,19.70
2022-08-17T04:02:23.198Z,19.80
2022-08-17T04:05:10.114Z,19.90
2022-08-17T04:07:57.061Z,20.00
2022-08-17T04:10:44.989Z,19.90
2022-08-17T04:13:33.632Z,20.00
2022-08-17T04:16:20.310Z,19.90
2022-08-17T04:19:07.498Z,19.90
2022-08-17T04:21:54.469Z,19.90
2022-08-17T04:24:40.955Z,19.90
2022-08-17T04:27:27.268Z,19.70
2022-08-17T04:30:16.487Z,19.50
2022-08-17T04:33:09.760Z,19.50
2022-08-17T04:35:59.837Z,19.40
2022-08-17T04:38:47.385Z,19.60
2022-08-17T04:41:51.162Z,19.80
2022-08-17T04:44:38.171Z,20.00
2022-08-17T04:47:26.138Z,20.10
2022-08-17T04:50:12.617Z,20.20
2022-08-17T04:52:59.222Z,20.10
2022-08-17T04:55:46.683Z,20.10
2022-08-17T04:58:33.266Z,20.20
2022-08-17T05:01:23.818Z,20.40
2022-08-17T05:04:21.339Z,20.50
2022-08-17T05:07:23.952Z,20.70
2022-08-17T05:10:11.538Z,20.80
2022-08-17T05:13:02.146Z,20.80
2022-08-17T05:15:50.794Z,20.80
2022-08-17T05:18:38.788Z,20.80
2022-08-17T05:21:28.284Z,20.90
2022-08-17T05:24:38.585Z,20.90
2022-08-17T05:27:21.254Z,20.90
2022-08-17T05:30:10.683Z,20.90
2022-08-17T05:32:59.342Z,21.00
2022-08-17T05:35:48.135Z,21.10
2022-08-17T05:38:36.241Z,21.10
2022-08-17T05:41:22.608Z,21.20
2022-08-17T05:44:09.540Z,21.30
2022-08-17T05:46:56.895Z,21.30
2022-08-17T05:49:43.322Z,21.40
2022-08-17T05:52:37.330Z,21.30
2022-08-17T05:55:35.770Z,21.00
2022-08-17T05:58:27.796Z,21.00
2022-08-17T06:01:25.070Z,21.00
2022-08-17T06:04:28.092Z,21.10
2022-08-17T06:07:22.571Z,21.50
2022-08-17T06:10:15.709Z,21.80
2022-08-17T06:13:16.906Z,22.10
2022-08-17T06:16:33.793Z,23.00
2022-08-17T06:19:19.709Z,23.90
2022-08-17T06:22:08.541Z,24.90
2022-08-17T06:25:01.018Z,25.30
2022-08-17T06:27:53.826Z,26.10
2022-08-17T06:30:58.471Z,26.70
2022-08-17T06:33:47.411Z,27.40
2022-08-17T06:36:50.500Z,27.40
2022-08-17T06:39:50.718Z,27.40
2022-08-17T06:42:54.673Z,26.80
2022-08-17T06:46:02.084Z,26.50
2022-08-17T06:49:07.399Z,26.20
2022-08-17T06:51:58.706Z,25.90
2022-08-17T06:54:56.200Z,25.80
2022-08-17T06:57:47.086Z,26.00
2022-08-17T07:00:40.705Z,26.20
2022-08-17T07:03:35.739Z,26.30
2022-08-17T07:06:26.052Z,26.00
2022-08-17T07:09:19.678Z,25.70
2022-08-17T07:12:15.033Z,25.60
2022-08-17T07:15:12.115Z,25.40
2022-08-17T07:18:00.679Z,25.10
2022-08-17T07:20:53.697Z,25.00
2022-08-17T07:23:50.595Z,25.00
2022-08-17T07:26:38.857Z,25.00
2022-08-17T07:29:27.049Z,25.20
2022-08-17T07:32:17.853Z,26.00
2022-08-17T07:35:18.350Z,27.10
2022-08-17T07:38:24.661Z,28.10
2022-08-17T07:41:13.112Z,28.90
2022-08-17T07:43:59.719Z,29.20
2022-08-17T07:47:08.819Z,29.10
2022-08-17T07:49:55.517Z,29.00
2022-08-17T07:52:50.593Z,28.40
2022-08-17T07:55:41.740Z,28.00
2022-08-17T07:58:28.738Z,27.50
2022-08-17T08:01:18.243Z,27.20
2022-08-17T08:04:43.168Z,26.80
2022-08-17T08:07:38.323Z,26.30
2022-08-17T08:10:32.219Z,25.80
2022-08-17T08:13:25.746Z,25.90
2022-08-17T08:16:24.235Z,26.10
2022-08-17T08:19:12.782Z,26.10
2022-08-17T08:22:05.521Z,26.00
2022-08-17T08:25:05.298Z,26.20
2022-08-17T08:28:03.399Z,26.20
2022-08-17T08:31:02.384Z,25.90
2022-08-17T08:33:59.323Z,26.00
2022-08-17T08:37:14.793Z,25.90
2022-08-17T08:40:11.549Z,25.70
2022-08-17T08:43:09.248Z,25.50
2022-08-17T08:46:06.710Z,25.40
2022-08-17T08:50:01.212Z,25.30
2022-08-17T08:53:04.681Z,25.30
2022-08-17T08:55:56.319Z,25.20
2022-08-17T08:58:53.213Z,25.20
2022-08-17T09:01:50.788Z,25.00
2022-08-17T09:05:13.429Z,25.10
2022-08-17T09:08:04.655Z,25.20
2022-08-17T09:11:00.547Z,25.00
2022-08-17T09:13:55.573Z,24.80
2022-08-17T09:16:49.897Z,24.60
2022-08-17T09:19:43.656Z,24.50
2022-08-17T09:22:36.681Z,24.10
2022-08-17T09:25:27.044Z,23.90
2022-08-17T09:28:20.134Z,23.90
2022-08-17T09:31:10.984Z,23.90
2022-08-17T09:34:03.018Z,23.90
2022-08-17T09:37:02.479Z,23.90
2022-08-17T09:40:00.316Z,24.00
2022-08-17T09:42:50.830Z,24.10
2022-08-17T09:45:43.712Z,24.00
2022-08-17T09:48:34.628Z,24.10
2022-08-17T09:51:30.592Z,24.20
2022-08-17T09:54:38.791Z,24.20
2022-08-17T09:57:37.046Z,24.00
2022-08-17T10:00:29.017Z,23.90
2022-08-17T10:03:28.702Z,23.90
2022-08-17T10:06:22.259Z,23.90
2022-08-17T10:09:18.438Z,24.00
2022-08-17T10:12:20.316Z,23.90
2022-08-17T10:15:23.481Z,23.90
2022-08-17T10:18:41.278Z,23.80
2022-08-17T10:21:47.500Z,23.60
2022-08-17T10:25:13.496Z,23.60
2022-08-17T10:28:19.732Z,23.40
2022-08-17T10:31:34.212Z,23.30
2022-08-17T10:34:49.362Z,23.40
2022-08-17T10:37:56.914Z,23.50
2022-08-17T10:40:54.293Z,23.40
2022-08-17T10:44:37.146Z,23.50
2022-08-17T10:47:08.727Z,23.90
2022-08-17T10:49:56.062Z,24.30
2022-08-17T10:52:52.573Z,24.50
2022-08-17T10:55:40.999Z,24.70
2022-08-17T10:58:39.677Z,24.70
2022-08-17T11:01:57.875Z,24.70
2022-08-17T11:04:57.193Z,24.90
2022-08-17T11:07:58.466Z,24.80
2022-08-17T11:10:55.738Z,24.90
2022-08-17T11:13:56.998Z,25.10
2022-08-17T11:16:53.357Z,25.10
2022-08-17T11:20:13.474Z,24.90
2022-08-17T11:23:23.852Z,24.90
2022-08-17T11:26:26.162Z,24.70
2022-08-17T11:29:24.637Z,24.60
2022-08-17T11:32:28.114Z,24.90
2022-08-17T11:35:32.436Z,25.00
2022-08-17T11:38:28.431Z,25.00
2022-08-17T11:41:27.337Z,24.80
2022-08-17T11:44:30.035Z,25.00
2022-08-17T11:47:39.573Z,25.20
2022-08-17T11:51:05.870Z,25.30
2022-08-17T11:54:32.340Z,25.40
2022-08-17T11:58:05.514Z,25.40
2022-08-17T12:00:57.677Z,25.50
2022-08-17T12:03:55.510Z,25.20
2022-08-17T12:06:51.106Z,25.10
2022-08-17T12:09:42.529Z,25.40
2022-08-17T12:12:34.222Z,25.60
2022-08-17T12:15:28.649Z,25.90
2022-08-17T12:18:22.180Z,25.80
2022-08-17T12:21:18.393Z,25.90
2022-08-17T12:24:14.980Z,25.90
2022-08-17T12:27:05.195Z,26.20
2022-08-17T12:29:52.253Z,26.70
2022-08-17T12:32:40.610Z,26.90
2022-08-17T12:35:33.107Z,27.30
2022-08-17T12:38:32.681Z,27.50
2022-08-17T12:41:34.102Z,27.40
2022-08-17T12:44:23.432Z,27.50
2022-08-17T12:47:21.828Z,27.50
2022-08-17T12:50:29.144Z,27.40
2022-08-17T12:53:21.564Z,27.50
2022-08-17T12:56:12.328Z,27.40
2022-08-17T12:58:59.133Z,27.40
2022-08-17T13:01:49.387Z,27.70
2022-08-17T13:04:40.458Z,27.90
2022-08-17T13:07:36.432Z,28.00
2022-08-17T13:10:32.402Z,28.40
2022-08-17T13:13:22.508Z,28.50
2022-08-17T13:16:17.607Z,28.70
2022-08-17T13:19:08.827Z,28.60
2022-08-17T13:21:58.574Z,28.60
2022-08-17T13:24:54.024Z,28.60
2022-08-17T13:27:44.130Z,28.50
2022-08-17T13:30:33.311Z,28.60
2022-08-17T13:33:43.452Z,28.70
2022-08-17T13:36:33.423Z,28.60
2022-08-17T13:39:24.078Z,28.80
2022-08-17T13:42:33.129Z,28.90
2022-08-17T13:45:43.370Z,29.00
2022-08-17T13:48:33.903Z,29.10
2022-08-17T13:51:33.407Z,29.20
2022-08-17T13:54:25.377Z,28.90
2022-08-17T13:57:22.437Z,28.60
2022-08-17T14:00:13.117Z,28.60
2022-08-17T14:03:02.796Z,28.70
2022-08-17T14:05:50.231Z,28.80
2022-08-17T14:08:38.086Z,28.70
2022-08-17T14:11:25.421Z,28.70
2022-08-17T14:14:12.784Z,28.70
2022-08-17T14:17:00.332Z,28.70
2022-08-17T14:19:48.225Z,28.50
2022-08-17T14:22:37.860Z,28.60
2022-08-17T14:25:27.390Z,28.60
2022-08-17T14:28:14.117Z,28.80
2022-08-17T14:31:02.020Z,28.70
2022-08-17T14:33:48.783Z,28.70
2022-08-17T14:36:36.982Z,28.40
2022-08-17T14:39:23.729Z,28.70
2022-08-17T14:42:11.416Z,28.90
2022-08-17T14:44:58.963Z,29.00
2022-08-17T14:47:46.422Z,29.10
2022-08-17T14:50:35.747Z,29.30
2022-08-17T14:53:23.998Z,29.30
2022-08-17T14:56:10.832Z,29.20
2022-08-17T14:58:57.666Z,29.20
2022-08-17T15:01:47.692Z,29.20
2022-08-17T15:04:34.661Z,29.10
2022-08-17T15:07:24.277Z,29.10
2022-08-17T15:10:18.928Z,28.90
2022-08-17T15:13:06.047Z,28.90
2022-08-17T15:15:53.895Z,28.90
2022-08-17T15:18:41.174Z,28.80
2022-08-17T15:21:27.747Z,28.90
2022-08-17T15:24:15.166Z,28.90
2022-08-17T15:27:03.500Z,28.80
2022-08-17T15:29:50.148Z,28.70
2022-08-17T15:32:40.505Z,28.80
2022-08-17T15:35:29.772Z,28.90
2022-08-17T15:38:16.186Z,29.00
2022-08-17T15:41:03.788Z,28.90
2022-08-17T15:43:51.753Z,28.90
2022-08-17T15:46:38.346Z,28.70
2022-08-17T15:49:26.120Z,28.80
2022-08-17T15:52:18.983Z,28.70
2022-08-17T15:55:07.435Z,28.80
2022-08-17T15:57:53.987Z,28.80
2022-08-17T16:00:50.431Z,28.90
2022-08-17T16:04:04.995Z,29.00
2022-08-17T16:06:57.326Z,28.90
2022-08-17T16:09:44.329Z,28.90
2022-08-17T16:12:31.058Z,28.80
2022-08-17T16:15:19.006Z,28.70
2022-08-17T16:18:06.979Z,28.70
2022-08-17T16:20:54.893Z,28.60
2022-08-17T16:23:41.718Z,28.60
2022-08-17T16:26:30.218Z,28.60
2022-08-17T16:29:16.849Z,28.60
2022-08-17T16:32:10.433Z,28.50
2022-08-17T16:35:02.894Z,28.40
2022-08-17T16:37:49.924Z,28.40
2022-08-17T16:40:36.614Z,28.50
2022-08-17T16:43:23.371Z,28.50
2022-08-17T16:46:11.284Z,28.50
2022-08-17T16:48:58.050Z,28.40
2022-08-17T16:51:48.342Z,28.30
2022-08-17T16:54:35.842Z,28.30
2022-08-17T16:57:23.324Z,28.20
2022-08-17T17:00:12.500Z,28.10
2022-08-17T17:03:18.119Z,28.10
2022-08-17T17:06:15.045Z,28.10
2022-08-17T17:09:06.584Z,28.00
2022-08-17T17:11:57.018Z,28.00
2022-08-17T17:14:45.883Z,28.00
2022-08-17T17:17:36.266Z,28.00
2022-08-17T17:20:29.840Z,27.90
2022-08-17T17:23:37.407Z,27.70
2022-08-17T17:26:48.811Z,27.60
2022-08-17T17:29:57.983Z,27.50
2022-08-17T17:32:50.382Z,27.20
2022-08-17T17:35:43.524Z,27.00
2022-08-17T17:38:35.356Z,26.80
2022-08-17T17:41:26.613Z,26.80
2022-08-17T17:44:19.827Z,26.80
2022-08-17T17:47:07.250Z,26.80
2022-08-17T17:49:53.937Z,26.80
2022-08-17T17:52:48.937Z,26.80
2022-08-17T17:55:44.041Z,26.90
2022-08-17T17:58:40.500Z,26.80
2022-08-17T18:01:41.973Z,26.80
2022-08-17T18:04:33.168Z,26.70
2022-08-17T18:07:31.762Z,26.60
2022-08-17T18:10:30.524Z,26.70
2022-08-17T18:13:27.768Z,26.70
2022-08-17T18:16:15.877Z,26.60
2022-08-17T18:19:04.092Z,26.50
2022-08-17T18:22:02.155Z,26.40
2022-08-17T18:24:55.706Z,26.30
2022-08-17T18:27:52.378Z,26.40
2022-08-17T18:30:39.047Z,26.40
2022-08-17T18:33:26.863Z,26.40
2022-08-17T18:36:28.122Z,26.40
2022-08-17T18:39:18.730Z,26.50
2022-08-17T18:42:23.320Z,26.30
2022-08-17T18:45:10.885Z,26.00
2022-08-17T18:47:57.804Z,25.70
2022-08-17T18:50:44.785Z,25.70
2022-08-17T18:53:37.620Z,25.70
2022-08-17T18:56:30.752Z,25.80
2022-08-17T18:59:28.691Z,25.80
2022-08-17T19:02:43.370Z,25.40
2022-08-17T19:05:36.730Z,25.30
2022-08-17T19:08:33.535Z,25.10
2022-08-17T19:11:26.860Z,25.10
2022-08-17T19:14:17.517Z,24.90
2022-08-17T19:17:10.824Z,24.70
2022-08-17T19:20:05.921Z,24.60
2022-08-17T19:23:09.662Z,24.50
2022-08-17T19:26:01.574Z,24.50
2022-08-17T19:28:55.131Z,24.50
2022-08-17T19:31:42.497Z,24.60
2022-08-17T19:34:34.351Z,24.40
2022-08-17T19:37:37.553Z,24.50
2022-08-17T19:40:52.324Z,24.50
2022-08-17T19:44:07.852Z,24.40
2022-08-17T19:47:02.875Z,24.20
2022-08-17T19:50:00.941Z,24.00
2022-08-17T19:52:57.260Z,23.90
2022-08-17T19:55:54.306Z,23.90
2022-08-17T19:58:51.686Z,23.90
2022-08-17T20:01:46.103Z,23.80
2022-08-17T20:04:40.629Z,23.50
2022-08-17T20:07:32.793Z,23.30
2022-08-17T20:10:29.746Z,23.30
2022-08-17T20:13:33.656Z,23.30
2022-08-17T20:16:20.913Z,23.40
2022-08-17T20:19:20.807Z,23.50
2022-08-17T20:22:12.452Z,23.60
2022-08-17T20:25:08.070Z,23.40
2022-08-17T20:28:05.967Z,23.20
2022-08-17T20:30:53.628Z,23.00
2022-08-17T20:33:40.366Z,22.90
2022-08-17T20:36:28.725Z,22.90
2022-08-17T20:39:31.967Z,22.90
2022-08-17T20:42:33.583Z,22.90
2022-08-17T20:46:03.870Z,23.00
2022-08-17T20:48:54.305Z,22.80
2022-08-17T20:52:01.675Z,22.50
2022-08-17T20:54:51.610Z,22.40
2022-08-17T20:57:48.479Z,22.60
2022-08-17T21:00:44.738Z,22.80
2022-08-17T21:03:52.294Z,23.00
2022-08-17T21:07:28.956Z,23.10
2022-08-17T21:10:19.391Z,23.10
2022-08-17T21:13:44.256Z,23.20
2022-08-17T21:16:47.100Z,23.30
2022-08-17T21:20:08.204Z,23.20
2022-08-17T21:23:12.176Z,23.20
2022-08-17T21:26:18.311Z,23.30
2022-08-17T21:29:29.670Z,23.30
2022-08-17T21:32:24.355Z,23.30
2022-08-17T21:35:51.035Z,23.30
2022-08-17T21:38:43.958Z,23.30
2022-08-17T21:41:33.408Z,23.40
2022-08-17T21:44:31.586Z,23.40
2022-08-17T21:47:21.816Z,23.40
2022-08-17T21:50:18.681Z,23.30
2022-08-17T21:53:06.662Z,23.30
2022-08-17T21:55:55.039Z,23.40
2022-08-17T21:58:48.421Z,23.40
2022-08-17T22:01:37.240Z,23.50
2022-08-17T22:04:28.855Z,23.30
2022-08-17T22:07:15.494Z,23.20
2022-08-17T22:10:02.388Z,23.10
2022-08-17T22:13:16.465Z,23.10
2022-08-17T22:16:15.377Z,23.10
2022-08-17T22:19:15.294Z,23.20
2022-08-17T22:22:06.920Z,23.30
2022-08-17T22:24:57.554Z,23.40
2022-08-17T22:27:47.799Z,23.50
2022-08-17T22:30:39.633Z,23.50
2022-08-17T22:33:37.314Z,23.50
2022-08-17T22:36:26.805Z,23.60
2022-08-17T22:39:41.420Z,23.50
2022-08-17T22:42:28.516Z,23.50
2022-08-17T22:45:15.549Z,23.50
2022-08-17T22:48:03.650Z,23.50
2022-08-17T22:50:51.296Z,23.50
2022-08-17T22:53:55.601Z,23.50
2022-08-17T22:57:07.326Z,23.50
2022-08-17T22:59:57.430Z,23.50
2022-08-17T23:03:07.205Z,23.60
2022-08-17T23:06:05.673Z,23.50
2022-08-17T23:08:54.917Z,23.50
2022-08-17T23:11:49.547Z,23.50
2022-08-17T23:14:41.133Z,23.40
2022-08-17T23:17:32.864Z,23.40
2022-08-17T23:20:23.182Z,23.40
2022-08-17T23:23:10.917Z,23.30
2022-08-17T23:25:57.547Z,23.30
2022-08-17T23:28:44.857Z,23.30
2022-08-17T23:31:32.938Z,23.20
2022-08-17T23:34:20.043Z,23.00
2022-08-17T23:37:08.521Z,23.00
2022-08-17T23:39:55.305Z,22.90
2022-08-17T23:42:43.806Z,22.70
2022-08-17T23:45:34.338Z,22.60
2022-08-17T23:48:28.642Z,22.60
2022-08-17T23:51:27.102Z,22.50
2022-08-17T23:54:21.466Z,22.50
2022-08-17T23:57:09.093Z,22.50
2022-08-17T23:59:56.858Z,22.50
